Portada
METAR-TAF:

METAR-TAF

Aeropuertos :

Zaragoza, España

Aeropuerto de Zaragoza

latitud: 41-40N, longitud: 001-01W, altitud: 263 m

Observación

El informe se hizo hace 34 minutos, a las 22:30 UTC
Viento 6 kt del oeste
Temperatura 9°C
Humedad 81%
Presión 1025 hPa
Visibilidad 10 km o más
Nubes dispersas a una altura de 4200 ft
Cielo nuboso a una altura de 5500 ft

METAR: LEZG 192230Z 28006KT 9999 SCT042 BKN055 09/06 Q1025

Hora: 00:04 (23:04 UTC)

Pronóstico

El informe se hizo hace 6 horas y 4 minutos, a las 17:00 UTC
Pronóstico válido del 19 a las 18 UTC al 20 a las 18 UTC
Viento 10 kt del oeste-noroeste
Visibilidad 10 km o más
Escasas nubes a una altura de 4000 ft
Probabilidad 40% :
Temporalmente
del 20 a las 08 UTC al 20 a las 16 UTC
Viento 13 kt del oeste con ráfagas de 25 kt

TAF: LEZG 191700Z 1918/2018 30010KT 9999 FEW040 TX15/2014Z TN05/2007Z PROB40 TEMPO 2008/2016 28013G25KT

Observaciones y pronósticos meteorológicos de más de 4000 aeropuertos (mensajes METAR y TAF).

Los puntos amarillos y rojos representan las estaciones disponibles.

Ponga el ratón en el punto deseado para ver el nombre de la estación.

Haga clic para ver las observaciones y los pronósticos meteorológicos.

Para cambiar el mapa : haga clic en los botones verdes con una cruz de color negro para hacer un zoom, en el botón verde con un guión para alejar o en las flechas verdes para mapas adyacentes.


METAR-TAF: